sensor_id;sensor_type;location;lat;lon;timestamp;pressure;altitude;pressure_sealevel;temperature;humidity
9893;BME280;4985;49.092;8.542;2024-03-07T00:01:35;99906.09;;;15.89;49.86
9893;BME280;4985;49.092;8.542;2024-03-07T00:04:00;99899.16;;;15.88;49.81
9893;BME280;4985;49.092;8.542;2024-03-07T00:06:25;99898.34;;;15.87;50.06
9893;BME280;4985;49.092;8.542;2024-03-07T00:08:51;99898.34;;;15.87;50.01
9893;BME280;4985;49.092;8.542;2024-03-07T00:11:16;99903.63;;;15.87;50.15
9893;BME280;4985;49.092;8.542;2024-03-07T00:13:42;99907.94;;;15.88;49.86
9893;BME280;4985;49.092;8.542;2024-03-07T00:16:08;99901.81;;;15.88;49.77
9893;BME280;4985;49.092;8.542;2024-03-07T00:18:35;99903.47;;;15.89;49.94
9893;BME280;4985;49.092;8.542;2024-03-07T00:21:01;99912.44;;;15.88;50.19
9893;BME280;4985;49.092;8.542;2024-03-07T00:23:26;99904.47;;;15.88;49.80
9893;BME280;4985;49.092;8.542;2024-03-07T00:25:52;99905.47;;;15.87;50.15
9893;BME280;4985;49.092;8.542;2024-03-07T00:28:17;99902.81;;;15.87;49.98
9893;BME280;4985;49.092;8.542;2024-03-07T00:30:43;99906.47;;;15.86;50.14
9893;BME280;4985;49.092;8.542;2024-03-07T00:33:11;99902.16;;;15.85;50.21
9893;BME280;4985;49.092;8.542;2024-03-07T00:35:36;99901.19;;;15.86;50.16
9893;BME280;4985;49.092;8.542;2024-03-07T00:38:01;99902.16;;;15.85;49.82
9893;BME280;4985;49.092;8.542;2024-03-07T00:40:27;99909.13;;;15.86;49.98
9893;BME280;4985;49.092;8.542;2024-03-07T00:42:52;99901.19;;;15.86;49.89
9893;BME280;4985;49.092;8.542;2024-03-07T00:45:18;99903.81;;;15.86;49.79
9893;BME280;4985;49.092;8.542;2024-03-07T00:47:43;99903.81;;;15.86;50.11
9893;BME280;4985;49.092;8.542;2024-03-07T00:50:09;99908.13;;;15.87;49.91
9893;BME280;4985;49.092;8.542;2024-03-07T00:52:35;99896.84;;;15.85;49.90
9893;BME280;4985;49.092;8.542;2024-03-07T00:55:00;99897.66;;;15.85;49.72
9893;BME280;4985;49.092;8.542;2024-03-07T00:57:26;99896.84;;;15.85;49.90
9893;BME280;4985;49.092;8.542;2024-03-07T00:59:51;99896.84;;;15.85;49.90
9893;BME280;4985;49.092;8.542;2024-03-07T01:02:16;99899.50;;;15.85;49.97
9893;BME280;4985;49.092;8.542;2024-03-07T01:04:44;99896.03;;;15.84;50.17
9893;BME280;4985;49.092;8.542;2024-03-07T01:07:10;99897.84;;;15.84;49.99
9893;BME280;4985;49.092;8.542;2024-03-07T01:09:35;99889.06;;;15.83;49.86
9893;BME280;4985;49.092;8.542;2024-03-07T01:12:01;99889.88;;;15.84;49.92
9893;BME280;4985;49.092;8.542;2024-03-07T01:14:29;99889.88;;;15.84;50.01
9893;BME280;4985;49.092;8.542;2024-03-07T01:16:56;99896.84;;;15.85;49.90
9893;BME280;4985;49.092;8.542;2024-03-07T01:19:21;99897.84;;;15.84;49.96
9893;BME280;4985;49.092;8.542;2024-03-07T01:21:47;99894.38;;;15.83;49.76
9893;BME280;4985;49.092;8.542;2024-03-07T01:24:12;99894.38;;;15.83;49.79
9893;BME280;4985;49.092;8.542;2024-03-07T01:26:38;99885.41;;;15.84;50.15
9893;BME280;4985;49.092;8.542;2024-03-07T01:29:04;99885.59;;;15.83;50.00
9893;BME280;4985;49.092;8.542;2024-03-07T01:31:32;99882.94;;;15.83;49.89
9893;BME280;4985;49.092;8.542;2024-03-07T01:33:58;99880.28;;;15.83;50.09
9893;BME280;4985;49.092;8.542;2024-03-07T01:36:23;99878.44;;;15.83;49.94
9893;BME280;4985;49.092;8.542;2024-03-07T01:38:48;99878.63;;;15.82;49.94
9893;BME280;4985;49.092;8.542;2024-03-07T01:41:14;99881.28;;;15.82;49.81
9893;BME280;4985;49.092;8.542;2024-03-07T01:43:40;99878.63;;;15.82;49.88
9893;BME280;4985;49.092;8.542;2024-03-07T01:46:06;99874.16;;;15.82;49.79
9893;BME280;4985;49.092;8.542;2024-03-07T01:48:31;99868.00;;;15.82;49.83
9893;BME280;4985;49.092;8.542;2024-03-07T01:50:58;99864.53;;;15.81;49.81
9893;BME280;4985;49.092;8.542;2024-03-07T01:53:25;99866.38;;;15.81;49.86
9893;BME280;4985;49.092;8.542;2024-03-07T01:55:51;99863.72;;;15.81;50.12
9893;BME280;4985;49.092;8.542;2024-03-07T01:58:19;99860.22;;;15.80;49.94
9893;BME280;4985;49.092;8.542;2024-03-07T02:00:45;99863.72;;;15.81;49.76
9893;BME280;4985;49.092;8.542;2024-03-07T02:03:12;99856.75;;;15.80;49.89
9893;BME280;4985;49.092;8.542;2024-03-07T02:05:38;99858.41;;;15.81;50.11
9893;BME280;4985;49.092;8.542;2024-03-07T02:08:04;99850.44;;;15.81;50.06
9893;BME280;4985;49.092;8.542;2024-03-07T02:10:29;99851.44;;;15.80;49.78
9893;BME280;4985;49.092;8.542;2024-03-07T02:12:55;99849.81;;;15.79;50.00
9893;BME280;4985;49.092;8.542;2024-03-07T02:15:20;99844.50;;;15.79;49.88
9893;BME280;4985;49.092;8.542;2024-03-07T02:17:46;99846.31;;;15.78;50.01
9893;BME280;4985;49.092;8.542;2024-03-07T02:20:12;99847.16;;;15.79;49.81
9893;BME280;4985;49.092;8.542;2024-03-07T02:22:38;99835.06;;;15.76;49.85
9893;BME280;4985;49.092;8.542;2024-03-07T02:25:04;99837.53;;;15.78;49.76
9893;BME280;4985;49.092;8.542;2024-03-07T02:27:29;99835.91;;;15.77;49.93
9893;BME280;4985;49.092;8.542;2024-03-07T02:29:55;99831.41;;;15.77;49.93
9893;BME280;4985;49.092;8.542;2024-03-07T02:32:20;99827.94;;;15.77;49.69
9893;BME280;4985;49.092;8.542;2024-03-07T02:34:46;99830.59;;;15.77;50.03
9893;BME280;4985;49.092;8.542;2024-03-07T02:37:12;99825.28;;;15.77;49.78
9893;BME280;4985;49.092;8.542;2024-03-07T02:39:38;99825.28;;;15.77;49.95
9893;BME280;4985;49.092;8.542;2024-03-07T02:42:03;99823.63;;;15.76;49.99
9893;BME280;4985;49.092;8.542;2024-03-07T02:44:29;99829.75;;;15.76;50.03
9893;BME280;4985;49.092;8.542;2024-03-07T02:46:57;99820.97;;;15.76;49.81
9893;BME280;4985;49.092;8.542;2024-03-07T02:49:22;99820.16;;;15.75;49.90
9893;BME280;4985;49.092;8.542;2024-03-07T02:51:47;99818.31;;;15.76;49.87
9893;BME280;4985;49.092;8.542;2024-03-07T02:54:13;99815.66;;;15.76;49.90
9893;BME280;4985;49.092;8.542;2024-03-07T02:56:38;99817.50;;;15.75;50.11
9893;BME280;4985;49.092;8.542;2024-03-07T02:59:03;99822.97;;;15.73;50.10
9893;BME280;4985;49.092;8.542;2024-03-07T03:01:28;99815.81;;;15.74;50.06
9893;BME280;4985;49.092;8.542;2024-03-07T03:03:54;99815.81;;;15.74;49.81
9893;BME280;4985;49.092;8.542;2024-03-07T03:06:19;99811.53;;;15.73;49.95
9893;BME280;4985;49.092;8.542;2024-03-07T03:08:46;99820.31;;;15.73;50.29
9893;BME280;4985;49.092;8.542;2024-03-07T03:11:11;99814.19;;;15.73;50.06
9893;BME280;4985;49.092;8.542;2024-03-07T03:13:41;99819.50;;;15.73;50.09
9893;BME280;4985;49.092;8.542;2024-03-07T03:16:07;99817.03;;;15.71;49.96
9893;BME280;4985;49.092;8.542;2024-03-07T03:18:34;99817.03;;;15.71;50.10
9893;BME280;4985;49.092;8.542;2024-03-07T03:21:00;99811.72;;;15.71;49.99
9893;BME280;4985;49.092;8.542;2024-03-07T03:23:25;99822.34;;;15.71;50.14
9893;BME280;4985;49.092;8.542;2024-03-07T03:25:50;99815.38;;;15.70;49.82
9893;BME280;4985;49.092;8.542;2024-03-07T03:28:16;99818.03;;;15.70;50.35
9893;BME280;4985;49.092;8.542;2024-03-07T03:30:44;99824.97;;;15.71;50.13
9893;BME280;4985;49.092;8.542;2024-03-07T03:33:09;99821.50;;;15.71;49.97
9893;BME280;4985;49.092;8.542;2024-03-07T03:35:35;99824.34;;;15.69;50.11
9893;BME280;4985;49.092;8.542;2024-03-07T03:38:01;99820.69;;;15.70;49.80
9893;BME280;4985;49.092;8.542;2024-03-07T03:40:27;99823.34;;;15.70;50.11
9893;BME280;4985;49.092;8.542;2024-03-07T03:42:52;99822.50;;;15.70;49.95
9893;BME280;4985;49.092;8.542;2024-03-07T03:45:18;99818.22;;;15.69;49.82
9893;BME280;4985;49.092;8.542;2024-03-07T03:47:44;99819.03;;;15.69;49.99
9893;BME280;4985;49.092;8.542;2024-03-07T03:50:11;99817.41;;;15.68;50.10
9893;BME280;4985;49.092;8.542;2024-03-07T03:52:38;99808.44;;;15.69;50.17
9893;BME280;4985;49.092;8.542;2024-03-07T03:55:04;99813.72;;;15.69;49.81
9893;BME280;4985;49.092;8.542;2024-03-07T03:57:31;99812.09;;;15.68;49.95
9893;BME280;4985;49.092;8.542;2024-03-07T03:59:57;99812.09;;;15.68;49.92
9893;BME280;4985;49.092;8.542;2024-03-07T04:02:23;99802.28;;;15.69;50.22
9893;BME280;4985;49.092;8.542;2024-03-07T04:04:52;99806.78;;;15.68;49.96
9893;BME280;4985;49.092;8.542;2024-03-07T04:07:18;99814.09;;;15.66;50.18
9893;BME280;4985;49.092;8.542;2024-03-07T04:09:47;99805.13;;;15.67;50.27
9893;BME280;4985;49.092;8.542;2024-03-07T04:12:13;99806.16;;;15.66;50.03
9893;BME280;4985;49.092;8.542;2024-03-07T04:14:43;99810.44;;;15.67;50.22
9893;BME280;4985;49.092;8.542;2024-03-07T04:17:09;99799.19;;;15.65;50.21
9893;BME280;4985;49.092;8.542;2024-03-07T04:19:39;99804.50;;;15.65;49.80
9893;BME280;4985;49.092;8.542;2024-03-07T04:22:05;99802.84;;;15.64;50.12
9893;BME280;4985;49.092;8.542;2024-03-07T04:24:34;99803.50;;;15.66;49.98
9893;BME280;4985;49.092;8.542;2024-03-07T04:27:01;99799.19;;;15.65;50.21
9893;BME280;4985;49.092;8.542;2024-03-07T04:29:29;99794.06;;;15.64;50.11
9893;BME280;4985;49.092;8.542;2024-03-07T04:31:54;99800.19;;;15.64;50.17
9893;BME280;4985;49.092;8.542;2024-03-07T04:34:20;99805.50;;;15.64;49.93
9893;BME280;4985;49.092;8.542;2024-03-07T04:36:45;99798.56;;;15.63;50.24
9893;BME280;4985;49.092;8.542;2024-03-07T04:39:10;99800.38;;;15.63;50.13
9893;BME280;4985;49.092;8.542;2024-03-07T04:41:48;99803.03;;;15.63;49.85
9893;BME280;4985;49.092;8.542;2024-03-07T04:44:13;99797.72;;;15.63;50.16
9893;BME280;4985;49.092;8.542;2024-03-07T04:46:38;99795.91;;;15.63;50.12
9893;BME280;4985;49.092;8.542;2024-03-07T04:49:07;99795.25;;;15.61;50.00
9893;BME280;4985;49.092;8.542;2024-03-07T04:51:33;99801.38;;;15.62;50.09
9893;BME280;4985;49.092;8.542;2024-03-07T04:53:58;99802.19;;;15.62;50.25
9893;BME280;4985;49.092;8.542;2024-03-07T04:56:23;99799.53;;;15.62;49.99
9893;BME280;4985;49.092;8.542;2024-03-07T04:58:49;99796.88;;;15.62;49.96
9893;BME280;4985;49.092;8.542;2024-03-07T05:01:15;99802.38;;;15.61;50.15
9893;BME280;4985;49.092;8.542;2024-03-07T05:03:40;99807.69;;;15.61;49.82
9893;BME280;4985;49.092;8.542;2024-03-07T05:06:06;99810.34;;;15.61;49.94
9893;BME280;4985;49.092;8.542;2024-03-07T05:08:31;99796.25;;;15.60;50.30
9893;BME280;4985;49.092;8.542;2024-03-07T05:10:57;99803.38;;;15.60;50.13
9893;BME280;4985;49.092;8.542;2024-03-07T05:13:23;99802.53;;;15.59;49.97
9893;BME280;4985;49.092;8.542;2024-03-07T05:15:48;99796.41;;;15.59;50.03
9893;BME280;4985;49.092;8.542;2024-03-07T05:18:16;99793.75;;;15.59;50.08
9893;BME280;4985;49.092;8.542;2024-03-07T05:20:42;99791.09;;;15.59;49.88
9893;BME280;4985;49.092;8.542;2024-03-07T05:23:07;99799.88;;;15.59;50.11
9893;BME280;4985;49.092;8.542;2024-03-07T05:25:32;99799.88;;;15.59;50.11
9893;BME280;4985;49.092;8.542;2024-03-07T05:27:58;99800.06;;;15.58;50.23
9893;BME280;4985;49.092;8.542;2024-03-07T05:30:24;99800.88;;;15.58;50.10
9893;BME280;4985;49.092;8.542;2024-03-07T05:32:51;99793.13;;;15.57;50.06
9893;BME280;4985;49.092;8.542;2024-03-07T05:35:16;99788.63;;;15.57;49.81
9893;BME280;4985;49.092;8.542;2024-03-07T05:37:41;99784.34;;;15.56;49.87
9893;BME280;4985;49.092;8.542;2024-03-07T05:40:12;99787.81;;;15.57;50.04
9893;BME280;4985;49.092;8.542;2024-03-07T05:42:37;99782.69;;;15.55;50.13
9893;BME280;4985;49.092;8.542;2024-03-07T05:45:03;99792.28;;;15.56;50.34
9893;BME280;4985;49.092;8.542;2024-03-07T05:47:30;99790.66;;;15.55;50.09
9893;BME280;4985;49.092;8.542;2024-03-07T05:49:56;99788.00;;;15.55;50.10
9893;BME280;4985;49.092;8.542;2024-03-07T05:52:21;99790.66;;;15.55;50.34
9893;BME280;4985;49.092;8.542;2024-03-07T05:54:46;99790.66;;;15.55;50.14
9893;BME280;4985;49.092;8.542;2024-03-07T05:57:11;99792.28;;;15.56;50.02
9893;BME280;4985;49.092;8.542;2024-03-07T05:59:37;99791.66;;;15.54;50.16
9893;BME280;4985;49.092;8.542;2024-03-07T06:02:03;99790.84;;;15.54;50.18
9893;BME280;4985;49.092;8.542;2024-03-07T06:04:30;99788.19;;;15.54;49.97
9893;BME280;4985;49.092;8.542;2024-03-07T06:06:57;99784.72;;;15.53;50.00
9893;BME280;4985;49.092;8.542;2024-03-07T06:09:22;99791.84;;;15.53;50.23
9893;BME280;4985;49.092;8.542;2024-03-07T06:11:48;99788.19;;;15.54;49.91
9893;BME280;4985;49.092;8.542;2024-03-07T06:14:14;99791.84;;;15.53;50.03
9893;BME280;4985;49.092;8.542;2024-03-07T06:16:40;99798.97;;;15.52;50.10
9893;BME280;4985;49.092;8.542;2024-03-07T06:19:07;99791.03;;;15.52;50.17
9893;BME280;4985;49.092;8.542;2024-03-07T06:21:34;99790.19;;;15.52;50.09
9893;BME280;4985;49.092;8.542;2024-03-07T06:24:00;99792.66;;;15.53;49.89
9893;BME280;4985;49.092;8.542;2024-03-07T06:26:28;99783.06;;;15.52;49.89
9893;BME280;4985;49.092;8.542;2024-03-07T06:29:06;99789.34;;;15.51;50.15
9893;BME280;4985;49.092;8.542;2024-03-07T06:31:32;99789.34;;;15.51;50.10
9893;BME280;4985;49.092;8.542;2024-03-07T06:33:57;99781.56;;;15.50;49.96
9893;BME280;4985;49.092;8.542;2024-03-07T06:36:23;99789.34;;;15.51;49.91
9893;BME280;4985;49.092;8.542;2024-03-07T06:38:50;99786.88;;;15.50;50.15
9893;BME280;4985;49.092;8.542;2024-03-07T06:41:15;99786.06;;;15.49;50.08
9893;BME280;4985;49.092;8.542;2024-03-07T06:43:41;99787.88;;;15.49;50.17
9893;BME280;4985;49.092;8.542;2024-03-07T06:46:07;99794.84;;;15.50;50.24
9893;BME280;4985;49.092;8.542;2024-03-07T06:48:34;99786.06;;;15.49;50.33
9893;BME280;4985;49.092;8.542;2024-03-07T06:51:00;99789.53;;;15.50;49.90
9893;BME280;4985;49.092;8.542;2024-03-07T06:53:25;99791.38;;;15.49;50.25
9893;BME280;4985;49.092;8.542;2024-03-07T06:55:52;99786.06;;;15.49;50.26
9893;BME280;4985;49.092;8.542;2024-03-07T06:58:21;99792.19;;;15.50;49.94
9893;BME280;4985;49.092;8.542;2024-03-07T07:00:48;99791.38;;;15.49;49.98
9893;BME280;4985;49.092;8.542;2024-03-07T07:03:14;99799.31;;;15.49;50.22
9893;BME280;4985;49.092;8.542;2024-03-07T07:05:40;99790.53;;;15.49;49.91
9893;BME280;4985;49.092;8.542;2024-03-07T07:08:08;99800.34;;;15.48;50.26
9893;BME280;4985;49.092;8.542;2024-03-07T07:10:34;99797.69;;;15.48;50.20
9893;BME280;4985;49.092;8.542;2024-03-07T07:13:00;99802.16;;;15.48;50.15
9893;BME280;4985;49.092;8.542;2024-03-07T07:15:26;99801.34;;;15.47;50.22
9893;BME280;4985;49.092;8.542;2024-03-07T07:17:51;99796.03;;;15.47;49.81
9893;BME280;4985;49.092;8.542;2024-03-07T07:20:18;99798.69;;;15.47;50.04
9893;BME280;4985;49.092;8.542;2024-03-07T07:22:47;99795.03;;;15.48;49.81
9893;BME280;4985;49.092;8.542;2024-03-07T07:25:13;99795.03;;;15.48;50.11
9893;BME280;4985;49.092;8.542;2024-03-07T07:27:46;99785.41;;;15.47;50.12
9893;BME280;4985;49.092;8.542;2024-03-07T07:30:14;99793.38;;;15.47;50.26
9893;BME280;4985;49.092;8.542;2024-03-07T07:32:40;99786.44;;;15.46;50.27
9893;BME280;4985;49.092;8.542;2024-03-07T07:35:06;99784.59;;;15.47;50.28
9893;BME280;4985;49.092;8.542;2024-03-07T07:37:39;99782.13;;;15.45;50.14
9893;BME280;4985;49.092;8.542;2024-03-07T07:40:09;99781.13;;;15.46;49.89
9893;BME280;4985;49.092;8.542;2024-03-07T07:42:35;99781.13;;;15.46;50.04
9893;BME280;4985;49.092;8.542;2024-03-07T07:45:06;99777.66;;;15.46;50.10
9893;BME280;4985;49.092;8.542;2024-03-07T07:47:32;99781.13;;;15.46;49.97
9893;BME280;4985;49.092;8.542;2024-03-07T07:49:58;99774.16;;;15.45;50.03
9893;BME280;4985;49.092;8.542;2024-03-07T07:52:23;99783.97;;;15.44;49.96
9893;BME280;4985;49.092;8.542;2024-03-07T07:54:48;99774.16;;;15.45;49.88
9893;BME280;4985;49.092;8.542;2024-03-07T07:57:14;99779.47;;;15.45;49.94
9893;BME280;4985;49.092;8.542;2024-03-07T07:59:39;99775.19;;;15.44;50.14
9893;BME280;4985;49.092;8.542;2024-03-07T08:02:05;99777.84;;;15.44;50.11
9893;BME280;4985;49.092;8.542;2024-03-07T08:04:31;99776.00;;;15.44;49.85
9893;BME280;4985;49.092;8.542;2024-03-07T08:06:57;99777.84;;;15.44;50.05
9893;BME280;4985;49.092;8.542;2024-03-07T08:09:22;99778.66;;;15.44;50.07
9893;BME280;4985;49.092;8.542;2024-03-07T08:11:48;99772.53;;;15.44;50.00
9893;BME280;4985;49.092;8.542;2024-03-07T08:14:15;99764.56;;;15.44;50.20
9893;BME280;4985;49.092;8.542;2024-03-07T08:16:40;99776.00;;;15.44;50.33
9893;BME280;4985;49.092;8.542;2024-03-07T08:19:06;99772.53;;;15.44;49.85
9893;BME280;4985;49.092;8.542;2024-03-07T08:21:32;99770.88;;;15.43;49.84
9893;BME280;4985;49.092;8.542;2024-03-07T08:23:57;99767.22;;;15.44;50.07
9893;BME280;4985;49.092;8.542;2024-03-07T08:26:23;99770.88;;;15.43;50.28
9893;BME280;4985;49.092;8.542;2024-03-07T08:28:48;99772.53;;;15.44;50.09
9893;BME280;4985;49.092;8.542;2024-03-07T08:31:14;99767.22;;;15.44;50.23
9893;BME280;4985;49.092;8.542;2024-03-07T08:33:39;99762.75;;;15.44;49.85
9893;BME280;4985;49.092;8.542;2024-03-07T08:36:04;99754.97;;;15.43;50.16
9893;BME280;4985;49.092;8.542;2024-03-07T08:38:32;99766.22;;;15.45;49.80
9893;BME280;4985;49.092;8.542;2024-03-07T08:40:58;99768.03;;;15.44;50.23
9893;BME280;4985;49.092;8.542;2024-03-07T08:43:23;99762.94;;;15.43;50.23
9893;BME280;4985;49.092;8.542;2024-03-07T08:45:49;99768.03;;;15.44;50.27
9893;BME280;4985;49.092;8.542;2024-03-07T08:48:14;99754.78;;;15.44;50.13
9893;BME280;4985;49.092;8.542;2024-03-07T08:50:39;99758.25;;;15.45;50.14
9893;BME280;4985;49.092;8.542;2024-03-07T08:53:05;99750.28;;;15.45;50.01
9893;BME280;4985;49.092;8.542;2024-03-07T08:55:30;99748.47;;;15.46;49.92
9893;BME280;4985;49.092;8.542;2024-03-07T08:57:56;99743.97;;;15.46;50.07
9893;BME280;4985;49.092;8.542;2024-03-07T09:00:21;99741.97;;;15.48;50.06
9893;BME280;4985;49.092;8.542;2024-03-07T09:02:48;99743.97;;;15.46;50.02
9893;BME280;4985;49.092;8.542;2024-03-07T09:05:18;99740.31;;;15.47;49.78
9893;BME280;4985;49.092;8.542;2024-03-07T09:07:43;99736.66;;;15.48;50.21
9893;BME280;4985;49.092;8.542;2024-03-07T09:10:11;99736.66;;;15.48;50.11
9893;BME280;4985;49.092;8.542;2024-03-07T09:12:36;99734.00;;;15.48;49.76
9893;BME280;4985;49.092;8.542;2024-03-07T09:15:04;99729.69;;;15.47;50.06
9893;BME280;4985;49.092;8.542;2024-03-07T09:17:29;99739.31;;;15.48;49.94
9893;BME280;4985;49.092;8.542;2024-03-07T09:19:55;99734.81;;;15.49;50.02
9893;BME280;4985;49.092;8.542;2024-03-07T09:22:20;99724.41;;;15.47;49.97
9893;BME280;4985;49.092;8.542;2024-03-07T09:24:45;99729.69;;;15.47;49.93
9893;BME280;4985;49.092;8.542;2024-03-07T09:27:11;99730.53;;;15.48;50.05
9893;BME280;4985;49.092;8.542;2024-03-07T09:29:38;99724.41;;;15.47;50.11
9893;BME280;4985;49.092;8.542;2024-03-07T09:32:04;99731.34;;;15.48;49.95
9893;BME280;4985;49.092;8.542;2024-03-07T09:34:29;99715.44;;;15.48;49.96
9893;BME280;4985;49.092;8.542;2024-03-07T09:36:56;99719.09;;;15.47;49.77
9893;BME280;4985;49.092;8.542;2024-03-07T09:39:21;99720.72;;;15.48;49.97
9893;BME280;4985;49.092;8.542;2024-03-07T09:41:46;99716.25;;;15.49;50.05
9893;BME280;4985;49.092;8.542;2024-03-07T09:44:14;99720.72;;;15.48;50.03
9893;BME280;4985;49.092;8.542;2024-03-07T09:46:45;99725.03;;;15.49;49.78
9893;BME280;4985;49.092;8.542;2024-03-07T09:49:12;99718.09;;;15.48;49.91
9893;BME280;4985;49.092;8.542;2024-03-07T09:51:38;99721.56;;;15.49;50.19
9893;BME280;4985;49.092;8.542;2024-03-07T09:54:04;99722.38;;;15.49;49.81
9893;BME280;4985;49.092;8.542;2024-03-07T09:56:30;99726.03;;;15.48;50.02
9893;BME280;4985;49.092;8.542;2024-03-07T09:59:03;99720.72;;;15.48;50.10
9893;BME280;4985;49.092;8.542;2024-03-07T10:01:32;99723.38;;;15.48;50.02
9893;BME280;4985;49.092;8.542;2024-03-07T10:04:00;99720.72;;;15.48;49.89
9893;BME280;4985;49.092;8.542;2024-03-07T10:06:40;99724.41;;;15.47;50.05
9893;BME280;4985;49.092;8.542;2024-03-07T10:09:06;99724.41;;;15.47;49.81
9893;BME280;4985;49.092;8.542;2024-03-07T10:11:33;99725.41;;;15.46;50.16
9893;BME280;4985;49.092;8.542;2024-03-07T10:13:58;99721.75;;;15.47;49.98
9893;BME280;4985;49.092;8.542;2024-03-07T10:16:24;99728.88;;;15.47;50.11
9893;BME280;4985;49.092;8.542;2024-03-07T10:18:50;99720.94;;;15.47;50.01
9893;BME280;4985;49.092;8.542;2024-03-07T10:21:21;99719.91;;;15.48;50.10
9893;BME280;4985;49.092;8.542;2024-03-07T10:23:49;99718.28;;;15.47;49.90
9893;BME280;4985;49.092;8.542;2024-03-07T10:26:15;99712.16;;;15.46;50.07
9893;BME280;4985;49.092;8.542;2024-03-07T10:28:40;99719.09;;;15.47;49.96
9893;BME280;4985;49.092;8.542;2024-03-07T10:31:06;99715.44;;;15.48;49.83
9893;BME280;4985;49.092;8.542;2024-03-07T10:33:39;99704.00;;;15.48;49.93
9893;BME280;4985;49.092;8.542;2024-03-07T10:36:05;99704.81;;;15.48;49.97
9893;BME280;4985;49.092;8.542;2024-03-07T10:38:37;99706.66;;;15.48;50.11
9893;BME280;4985;49.092;8.542;2024-03-07T10:41:05;99693.38;;;15.48;49.93
9893;BME280;4985;49.092;8.542;2024-03-07T10:43:38;99696.84;;;15.48;49.91
9893;BME280;4985;49.092;8.542;2024-03-07T10:46:07;99684.59;;;15.47;49.91
9893;BME280;4985;49.092;8.542;2024-03-07T10:48:38;99681.13;;;15.47;50.30
9893;BME280;4985;49.092;8.542;2024-03-07T10:51:14;99688.06;;;15.48;50.21
9893;BME280;4985;49.092;8.542;2024-03-07T10:54:13;99682.78;;;15.48;49.89
9893;BME280;4985;49.092;8.542;2024-03-07T10:59:41;99683.97;;;15.45;49.93
9893;BME280;4985;49.092;8.542;2024-03-07T11:04:58;99678.66;;;15.45;50.36
9893;BME280;4985;49.092;8.542;2024-03-07T11:07:25;99680.31;;;15.46;50.13
9893;BME280;4985;49.092;8.542;2024-03-07T11:09:52;99671.34;;;15.47;50.35
9893;BME280;4985;49.092;8.542;2024-03-07T11:12:19;99667.66;;;15.48;50.08
9893;BME280;4985;49.092;8.542;2024-03-07T11:14:47;99663.00;;;15.50;49.98
9893;BME280;4985;49.092;8.542;2024-03-07T11:17:14;99668.31;;;15.50;50.20
9893;BME280;4985;49.092;8.542;2024-03-07T11:19:40;99668.16;;;15.52;50.19
9893;BME280;4985;49.092;8.542;2024-03-07T11:22:07;99654.03;;;15.51;49.93
9893;BME280;4985;49.092;8.542;2024-03-07T11:24:42;99660.19;;;15.52;50.16
9893;BME280;4985;49.092;8.542;2024-03-07T11:27:10;99655.03;;;15.50;50.37
9893;BME280;4985;49.092;8.542;2024-03-07T11:32:09;99650.41;;;15.52;50.00
9893;BME280;4985;49.092;8.542;2024-03-07T11:34:37;99649.38;;;15.53;50.03
9893;BME280;4985;49.092;8.542;2024-03-07T11:37:04;99653.69;;;15.54;50.22
9893;BME280;4985;49.092;8.542;2024-03-07T11:39:49;99648.38;;;15.54;50.33
9893;BME280;4985;49.092;8.542;2024-03-07T11:44:49;99634.28;;;15.54;49.99
9893;BME280;4985;49.092;8.542;2024-03-07T11:47:14;99631.63;;;15.54;50.06
9893;BME280;4985;49.092;8.542;2024-03-07T11:49:41;99629.78;;;15.54;50.23
9893;BME280;4985;49.092;8.542;2024-03-07T11:52:06;99632.25;;;15.56;50.20
9893;BME280;4985;49.092;8.542;2024-03-07T11:54:39;99623.47;;;15.55;50.09
9893;BME280;4985;49.092;8.542;2024-03-07T11:57:20;99618.16;;;15.55;50.39
9893;BME280;4985;49.092;8.542;2024-03-07T11:59:52;99619.00;;;15.56;50.20
9893;BME280;4985;49.092;8.542;2024-03-07T12:02:18;99618.81;;;15.57;49.91
9893;BME280;4985;49.092;8.542;2024-03-07T12:04:47;99614.50;;;15.56;50.00
9893;BME280;4985;49.092;8.542;2024-03-07T12:07:12;99603.88;;;15.56;50.32
9893;BME280;4985;49.092;8.542;2024-03-07T12:09:38;99604.53;;;15.58;50.13
9893;BME280;4985;49.092;8.542;2024-03-07T12:12:07;99606.16;;;15.59;50.13
9893;BME280;4985;49.092;8.542;2024-03-07T12:14:32;99607.00;;;15.60;49.90
9893;BME280;4985;49.092;8.542;2024-03-07T12:17:00;99604.38;;;15.60;49.92
9893;BME280;4985;49.092;8.542;2024-03-07T12:19:26;99602.53;;;15.60;50.02
9893;BME280;4985;49.092;8.542;2024-03-07T12:21:56;99595.38;;;15.61;50.12
9893;BME280;4985;49.092;8.542;2024-03-07T12:24:22;99597.22;;;15.60;50.02
9893;BME280;4985;49.092;8.542;2024-03-07T12:26:47;99604.16;;;15.61;50.12
9893;BME280;4985;49.092;8.542;2024-03-07T12:29:12;99589.88;;;15.62;50.02
9893;BME280;4985;49.092;8.542;2024-03-07T12:31:41;99595.19;;;15.62;49.95
9893;BME280;4985;49.092;8.542;2024-03-07T12:34:08;99581.09;;;15.62;50.14
9893;BME280;4985;49.092;8.542;2024-03-07T12:36:37;99590.75;;;15.63;50.05
9893;BME280;4985;49.092;8.542;2024-03-07T12:39:27;99580.94;;;15.63;49.88
9893;BME280;4985;49.092;8.542;2024-03-07T12:41:58;99586.25;;;15.63;50.28
9893;BME280;4985;49.092;8.542;2024-03-07T12:44:24;99583.41;;;15.65;50.08
9893;BME280;4985;49.092;8.542;2024-03-07T12:46:51;99580.75;;;15.65;49.84
9893;BME280;4985;49.092;8.542;2024-03-07T12:49:21;99585.88;;;15.66;50.31
9893;BME280;4985;49.092;8.542;2024-03-07T12:51:47;99575.25;;;15.66;49.96
9893;BME280;4985;49.092;8.542;2024-03-07T12:54:12;99582.19;;;15.67;49.97
9893;BME280;4985;49.092;8.542;2024-03-07T12:56:37;99573.41;;;15.67;49.99
9893;BME280;4985;49.092;8.542;2024-03-07T12:59:05;99574.25;;;15.67;50.11
9893;BME280;4985;49.092;8.542;2024-03-07T13:01:35;99571.59;;;15.67;49.97
9893;BME280;4985;49.092;8.542;2024-03-07T13:04:05;99579.53;;;15.67;50.05
9893;BME280;4985;49.092;8.542;2024-03-07T13:06:33;99574.25;;;15.67;50.12
9893;BME280;4985;49.092;8.542;2024-03-07T13:08:59;99576.88;;;15.67;50.00
9893;BME280;4985;49.092;8.542;2024-03-07T13:11:25;99579.34;;;15.69;49.98
9893;BME280;4985;49.092;8.542;2024-03-07T13:13:55;99574.88;;;15.69;49.96
9893;BME280;4985;49.092;8.542;2024-03-07T13:16:21;99574.88;;;15.69;49.85
9893;BME280;4985;49.092;8.542;2024-03-07T13:18:47;99574.88;;;15.69;49.91
9893;BME280;4985;49.092;8.542;2024-03-07T13:21:12;99575.69;;;15.70;50.22
9893;BME280;4985;49.092;8.542;2024-03-07T13:23:43;99567.72;;;15.70;49.83
9893;BME280;4985;49.092;8.542;2024-03-07T13:26:08;99571.19;;;15.70;50.08
9893;BME280;4985;49.092;8.542;2024-03-07T13:28:42;99571.19;;;15.70;50.18
9893;BME280;4985;49.092;8.542;2024-03-07T13:31:09;99570.38;;;15.70;49.82